Wiley Post Will Rogers Memorial Airport Barrow US
ICAO: PABR
IATA:
Category: Medium
Scheduled Services:

Elevation: 44 ft
TransAlt. 18000 ft.

Airport Communications:
ASOS:132.15
ANCHORAGE CNTR:135.3
CTAF:123.6
BARROW RDO:122.2

PABR Zoom In..

Runways:

(A) RW 07 length 7100 ft width 150 ft
ILS 110.50 / hdg 71

(B) RW 25 length 7100 ft width 150 ft
---- / hdg 251

Location; PABR
Day. 19 / Time. 20.53 Zulu
* Altimeter: 30.02
* Temperature: -10° c. -14°f.
* Wind from: 330° Speed 10 kn.
Dewpoint: -12° c.
Visibility: 10 Statute Miles.
Clouds: Few 6500 ft.

PABR 192053Z 33010KT 10SM FEW065 M10/M12 A3002 RMK AO2 SLP166 60000 T11001117 58019


Wind From 330°
Speed 10 kn.

  YouTube Music Video
 
jpsmedia.com for Web Design  worldairports.se 2018   terms of use